DL7GAI-7 Weather Reports


Display with metric or nautical units.
time (UTC)temp
F
wind
direction
speed
MPH
gust
MPH
rain 1hr
in
rain 24hr
in
rain mn
in
humidity
%
barometer
mb
20210728080725 63 270 7.0 13.0 0.01 0.01 0.04 85 1015.3
20210728075404 63 270 5.0 9.0 0.00 0.00 0.03 84 1015.3
20210728074059 63 270 5.0 9.0 0.00 0.00 0.03 84 1015.3
20210728072754 63 270 6.0 8.0 0.00 0.00 0.03 85 1014.7
20210728071404 63 270 6.0 8.0 0.00 0.00 0.03 85 1014.7
20210728070039 63 270 5.0 9.0 0.00 0.00 0.03 86 1014.3
20210728064719 63 270 5.0 9.0 0.00 0.00 0.03 86 1014.3
20210728063419 63 270 5.0 8.0 0.00 0.23 0.03 88 1014.4
20210728062124 63 270 5.0 8.0 0.00 0.23 0.03 88 1014.4
20210728060749 63 270 5.0 8.0 0.00 0.23 0.03 88 1014.4
20210728055309 63 270 4.0 6.0 0.00 0.23 0.03 88 1014.4
20210728053949 63 270 4.0 6.0 0.00 0.23 0.03 88 1014.4
20210728052654 63 270 4.0 6.0 0.00 0.23 0.03 88 1014.2
20210728051414 63 270 4.0 6.0 0.00 0.23 0.03 88 1014.2
20210728050059 62 0 0.0 7.0 0.00 0.23 0.03 97 1014.6
20210728044804 62 0 0.0 7.0 0.00 0.23 0.03 97 1014.6
20210728043521 62 180 1.0 7.0 0.00 0.23 0.03 95 1014.3
20210728042044 62 180 1.0 7.0 0.00 0.23 0.03 95 1014.3
20210728040629 62 180 1.0 7.0 0.00 0.23 0.03 95 1014.3
20210728035209 64 90 2.0 7.0 0.00 0.23 0.03 91 1014.4
20210728033754 64 90 2.0 7.0 0.00 0.23 0.03 91 1014.4
20210728032554 64 180 2.0 7.0 0.00 0.23 0.02 91 1014.4
20210728031144 64 180 2.0 7.0 0.00 0.23 0.02 91 1014.4
20210728025759 64 0 0.0 8.0 0.00 0.23 0.02 95 1014.4
20210728024539 64 0 0.0 8.0 0.00 0.23 0.02 95 1014.4
20210728023204 64 270 6.0 8.0 0.00 0.23 0.02 94 1014.5
20210728021814 64 270 6.0 8.0 0.00 0.23 0.02 94 1014.5
20210728020434 63 315 1.0 5.0 0.02 0.23 0.02 98 1014.6
20210728015104 63 315 1.0 5.0 0.02 0.23 0.02 98 1014.6
20210728013719 63 315 1.0 5.0 0.02 0.23 0.02 98 1014.6
20210728012328 62 315 3.0 4.0 0.00 0.21 0.00 97 1014.6
20210728011059 62 315 3.0 4.0 0.00 0.21 0.00 97 1014.6
20210728005648 62 0 1.0 3.0 0.00 0.20 0.00 98 1014.6
20210728004304 62 0 1.0 3.0 0.00 0.20 0.00 98 1014.6
20210728002959 62 0 2.0 3.0 0.00 0.20 0.20 97 1014.5
20210728001519 62 0 2.0 3.0 0.00 0.20 0.20 97 1014.5
20210728000059 62 315 3.0 5.0 0.00 0.20 0.20 96 1014.6
20210727234708 62 315 3.0 5.0 0.00 0.20 0.20 96 1014.6
20210727233324 63 0 2.0 5.0 0.00 0.20 0.20 96 1014.2
20210727232014 63 0 2.0 5.0 0.00 0.20 0.20 96 1014.2
20210727230648 63 0 2.0 5.0 0.00 0.20 0.20 96 1014.2
20210727225305 62 0 5.0 6.0 0.00 0.20 0.20 97 1014.3
20210727223904 62 0 5.0 6.0 0.00 0.20 0.20 97 1014.3
20210727222659 63 45 2.0 5.0 0.00 0.20 0.20 96 1014.1
20210727221234 63 45 2.0 5.0 0.00 0.20 0.20 96 1014.1
20210727215954 63 45 2.0 6.0 0.02 0.20 0.20 95 1014.1
20210727214524 63 45 2.0 6.0 0.02 0.20 0.20 95 1014.1
20210727213144 64 90 3.0 6.0 0.01 0.18 0.18 96 1013.9
20210727211944 64 90 3.0 6.0 0.01 0.18 0.18 96 1013.9
20210727210624 64 90 3.0 6.0 0.01 0.18 0.18 96 1013.9
20210727205208 64 0 4.0 7.0 0.00 0.17 0.17 94 1013.6
20210727203919 64 0 4.0 7.0 0.00 0.17 0.17 94 1013.6
20210727202608 65 45 2.0 7.0 0.00 0.17 0.17 93 1013.5
20210727201304 65 45 2.0 7.0 0.00 0.17 0.17 93 1013.5
20210727195934 64 45 5.0 7.0 0.03 0.17 0.17 92 1013.1
20210727194604 64 45 5.0 7.0 0.03 0.17 0.17 92 1013.1
20210727193259 65 45 4.0 6.0 0.03 0.14 0.14 96 1013.0
20210727191844 65 45 4.0 6.0 0.03 0.14 0.14 96 1013.0
20210727190519 66 45 3.0 12.0 0.08 0.11 0.11 94 1012.8
20210727185124 66 45 3.0 12.0 0.08 0.11 0.11 94 1012.8
20210727183759 66 45 3.0 12.0 0.08 0.11 0.11 94 1012.8
20210727182349 68 270 5.0 12.0 0.03 0.03 0.03 80 1012.9
20210727181114 68 270 5.0 12.0 0.03 0.03 0.03 80 1012.9
20210727175734 72 315 5.0 8.0 0.00 0.00 0.00 66 1012.1
20210727174429 72 315 5.0 8.0 0.00 0.00 0.00 66 1012.1
20210727173014 74 315 5.0 7.0 0.00 0.00 0.00 61 1011.7
20210727171704 74 315 5.0 7.0 0.00 0.00 0.00 61 1011.7
20210727170328 77 45 3.0 6.0 0.00 0.00 0.00 49 1011.4
20210727164919 77 45 3.0 6.0 0.00 0.00 0.00 49 1011.4
20210727163609 77 45 3.0 6.0 0.00 0.00 0.00 49 1011.4
20210727162248 78 45 2.0 6.0 0.00 0.00 0.00 52 1011.5
20210727160839 78 45 2.0 6.0 0.00 0.00 0.00 52 1011.5
20210727155518 77 90 3.0 11.0 0.00 0.00 0.00 51 1011.9
20210727154219 77 90 3.0 11.0 0.00 0.00 0.00 51 1011.9
20210727152909 76 90 3.0 11.0 0.00 0.00 0.00 52 1012.1
20210727151534 76 90 3.0 11.0 0.00 0.00 0.00 52 1012.1
20210727150259 76 90 6.0 9.0 0.00 0.00 0.00 53 1012.3
20210727144944 76 90 6.0 9.0 0.00 0.00 0.00 53 1012.3
20210727143514 74 0 3.0 9.0 0.00 0.00 0.00 62 1013.4
20210727142154 74 0 3.0 9.0 0.00 0.00 0.00 62 1013.4
20210727140824 74 0 3.0 9.0 0.00 0.00 0.00 62 1013.4
20210727135519 74 0 3.0 9.0 0.00 0.00 0.00 62 1013.4
20210727134239 74 0 3.0 9.0 0.00 0.00 0.00 62 1013.4
20210727132839 75 270 4.0 9.0 0.00 0.00 0.00 61 1013.4
20210727131614 75 270 4.0 9.0 0.00 0.00 0.00 61 1013.4
20210727130244 73 270 6.0 9.0 0.00 0.00 0.00 65 1013.9
20210727124909 73 270 6.0 9.0 0.00 0.00 0.00 65 1013.9
20210727123529 72 0 3.0 6.0 0.00 0.00 0.00 62 1014.3
20210727122314 72 0 3.0 6.0 0.00 0.00 0.00 62 1014.3
20210727121028 72 0 3.0 6.0 0.00 0.00 0.00 62 1014.3
20210727115714 71 90 3.0 7.0 0.00 0.00 0.00 68 1014.3
20210727114432 71 90 3.0 7.0 0.00 0.00 0.00 68 1014.3
20210727113138 70 90 3.0 6.0 0.00 0.00 0.00 67 1014.5
20210727111848 70 90 3.0 6.0 0.00 0.00 0.00 67 1014.5
20210727110508 69 45 4.0 9.0 0.00 0.00 0.00 67 1014.8
20210727105108 69 45 4.0 9.0 0.00 0.00 0.00 67 1014.8
20210727103649 69 45 4.0 9.0 0.00 0.00 0.00 67 1014.8
20210727102414 70 45 5.0 9.0 0.00 0.00 0.00 66 1014.7
20210727101048 70 45 5.0 9.0 0.00 0.00 0.00 66 1014.7
20210727095749 70 45 4.0 9.0 0.00 0.00 0.00 64 1014.9
20210727094329 70 45 4.0 9.0 0.00 0.00 0.00 64 1014.9
20210727092949 69 90 3.0 9.0 0.00 0.00 0.00 77 1015.1
20210727091619 69 90 3.0 9.0 0.00 0.00 0.00 77 1015.1
20210727090214 69 90 4.0 8.0 0.00 0.00 0.00 74 1014.9
20210727084814 69 90 4.0 8.0 0.00 0.00 0.00 74 1014.9
20210727083449 67 90 3.0 6.0 0.00 0.00 0.00 79 1015.4
20210727082114 67 90 3.0 6.0 0.00 0.00 0.00 79 1015.4